createdAt,value
2022-09-04T00:00:42.379Z,6.20
2022-09-04T00:01:45.350Z,5.70
2022-09-04T00:02:42.365Z,7.20
2022-09-04T00:03:42.665Z,7.00
2022-09-04T00:04:42.682Z,6.50
2022-09-04T00:05:42.397Z,5.90
2022-09-04T00:06:42.757Z,7.10
2022-09-04T00:07:42.517Z,9.10
2022-09-04T00:08:42.335Z,7.10
2022-09-04T00:09:42.408Z,7.30
2022-09-04T00:10:42.301Z,7.60
2022-09-04T00:11:42.408Z,6.70
2022-09-04T00:12:42.418Z,7.20
2022-09-04T00:13:42.376Z,7.10
2022-09-04T00:14:42.427Z,6.40
2022-09-04T00:15:42.276Z,6.20
2022-09-04T00:16:42.336Z,5.10
2022-09-04T00:17:42.366Z,6.90
2022-09-04T00:18:42.317Z,6.10
2022-09-04T00:19:42.246Z,5.00
2022-09-04T00:20:42.343Z,8.50
2022-09-04T00:21:42.257Z,6.10
2022-09-04T00:22:42.366Z,5.70
2022-09-04T00:23:42.387Z,6.10
2022-09-04T00:24:42.426Z,5.10
2022-09-04T00:25:42.419Z,6.00
2022-09-04T00:26:42.679Z,8.10
2022-09-04T00:27:42.435Z,8.10
2022-09-04T00:28:42.452Z,6.30
2022-09-04T00:29:42.233Z,7.00
2022-09-04T00:30:42.231Z,6.60
2022-09-04T00:31:42.485Z,7.10
2022-09-04T00:32:42.205Z,4.80
2022-09-04T00:33:42.166Z,7.00
2022-09-04T00:34:42.281Z,6.30
2022-09-04T00:35:42.140Z,6.20
2022-09-04T00:36:43.374Z,5.20
2022-09-04T00:37:42.163Z,5.40
2022-09-04T00:38:42.576Z,5.10
2022-09-04T00:39:42.614Z,5.90
2022-09-04T00:40:42.592Z,5.40
2022-09-04T00:41:42.121Z,4.90
2022-09-04T00:42:42.320Z,7.00
2022-09-04T00:43:42.642Z,5.00
2022-09-04T00:44:42.672Z,7.60
2022-09-04T00:45:42.735Z,6.40
2022-09-04T00:46:42.060Z,6.80
2022-09-04T00:47:42.042Z,4.90
2022-09-04T00:48:42.062Z,7.90
2022-09-04T00:49:42.194Z,7.20
2022-09-04T00:50:42.221Z,5.10
2022-09-04T00:51:42.280Z,5.30
2022-09-04T00:52:42.403Z,5.10
2022-09-04T00:53:42.202Z,5.90
2022-09-04T00:54:42.409Z,6.80
2022-09-04T00:55:42.091Z,5.30
2022-09-04T00:56:42.041Z,7.10
2022-09-04T00:57:42.092Z,6.20
2022-09-04T00:58:42.024Z,4.30
2022-09-04T00:59:42.235Z,4.70
2022-09-04T01:00:42.334Z,4.80
2022-09-04T01:01:42.456Z,7.80
2022-09-04T01:02:42.261Z,6.40
2022-09-04T01:03:41.977Z,5.60
2022-09-04T01:04:42.456Z,6.00
2022-09-04T01:05:41.941Z,5.50
2022-09-04T01:06:42.130Z,4.70
2022-09-04T01:07:41.959Z,5.20
2022-09-04T01:08:41.993Z,5.90
2022-09-04T01:09:41.989Z,6.30
2022-09-04T01:10:42.000Z,6.10
2022-09-04T01:11:42.018Z,8.00
2022-09-04T01:12:42.029Z,4.60
2022-09-04T01:13:41.974Z,4.70
2022-09-04T01:14:42.048Z,4.50
2022-09-04T01:15:42.058Z,5.70
2022-09-04T01:16:42.148Z,8.10
2022-09-04T01:17:42.092Z,5.20
2022-09-04T01:18:41.843Z,4.30
2022-09-04T01:19:42.031Z,4.70
2022-09-04T01:20:41.992Z,4.50
2022-09-04T01:21:42.168Z,4.50
2022-09-04T01:22:42.168Z,5.00
2022-09-04T01:23:41.865Z,7.10
2022-09-04T01:24:41.867Z,4.70
2022-09-04T01:25:41.871Z,6.60
2022-09-04T01:26:41.889Z,5.00
2022-09-04T01:27:41.826Z,5.20
2022-09-04T01:28:41.829Z,4.90
2022-09-04T01:29:41.827Z,4.60
2022-09-04T01:30:41.838Z,6.30
2022-09-04T01:31:41.868Z,4.70
2022-09-04T01:32:41.753Z,5.80
2022-09-04T01:33:41.896Z,6.20
2022-09-04T01:34:41.906Z,6.40
2022-09-04T01:35:41.734Z,6.20
2022-09-04T01:36:41.708Z,6.60
2022-09-04T01:37:41.767Z,5.50
2022-09-04T01:38:41.937Z,5.30
2022-09-04T01:39:41.921Z,5.10
2022-09-04T01:40:41.686Z,6.30
2022-09-04T01:41:41.798Z,4.90
2022-09-04T01:42:41.735Z,5.80
2022-09-04T01:43:42.005Z,6.00
2022-09-04T01:44:41.683Z,6.60
2022-09-04T01:45:42.055Z,6.70
2022-09-04T01:46:41.766Z,6.60
2022-09-04T01:47:42.058Z,5.00
2022-09-04T01:48:41.720Z,4.60
2022-09-04T01:49:41.638Z,6.10
2022-09-04T01:50:41.625Z,4.90
2022-09-04T01:51:41.687Z,6.80
2022-09-04T01:52:41.656Z,7.00
2022-09-04T01:53:41.732Z,6.50
2022-09-04T01:54:41.844Z,6.90
2022-09-04T01:55:41.796Z,4.10
2022-09-04T01:56:41.717Z,5.40
2022-09-04T01:57:41.874Z,6.80
2022-09-04T01:58:41.926Z,6.40
2022-09-04T01:59:41.876Z,5.70
2022-09-04T02:00:42.058Z,6.80
2022-09-04T02:01:41.706Z,6.20
2022-09-04T02:02:41.582Z,5.60
2022-09-04T02:03:41.594Z,5.50
2022-09-04T02:04:41.644Z,5.50
2022-09-04T02:05:41.603Z,5.80
2022-09-04T02:06:41.713Z,7.10
2022-09-04T02:07:41.745Z,5.20
2022-09-04T02:08:41.562Z,7.30
2022-09-04T02:09:41.556Z,6.50
2022-09-04T02:10:41.519Z,6.50
2022-09-04T02:11:41.752Z,5.90
2022-09-04T02:12:41.650Z,6.40
2022-09-04T02:13:41.581Z,6.20
2022-09-04T02:14:41.581Z,5.20
2022-09-04T02:15:41.565Z,5.70
2022-09-04T02:16:42.248Z,5.80
2022-09-04T02:17:41.663Z,6.50
2022-09-04T02:18:42.291Z,6.10
2022-09-04T02:19:41.581Z,6.60
2022-09-04T02:20:41.938Z,6.10
2022-09-04T02:21:41.601Z,6.50
2022-09-04T02:22:41.466Z,5.40
2022-09-04T02:23:42.467Z,6.40
2022-09-04T02:24:41.702Z,6.80
2022-09-04T02:25:41.400Z,6.30
2022-09-04T02:26:41.762Z,5.40
2022-09-04T02:27:41.651Z,5.70
2022-09-04T02:28:42.246Z,6.00
2022-09-04T02:29:41.811Z,4.60
2022-09-04T02:30:41.387Z,6.10
2022-09-04T02:31:41.571Z,6.90
2022-09-04T02:32:41.529Z,5.20
2022-09-04T02:33:41.339Z,7.00
2022-09-04T02:34:42.811Z,6.50
2022-09-04T02:35:42.010Z,6.20
2022-09-04T02:36:41.342Z,6.30
2022-09-04T02:37:42.028Z,7.90
2022-09-04T02:38:41.578Z,6.40
2022-09-04T02:39:41.444Z,6.50
2022-09-04T02:40:41.339Z,4.60
2022-09-04T02:41:41.515Z,5.10
2022-09-04T02:42:41.319Z,5.30
2022-09-04T02:43:41.439Z,6.50
2022-09-04T02:44:41.458Z,5.40
2022-09-04T02:45:41.546Z,5.30
2022-09-04T02:46:43.336Z,6.00
2022-09-04T02:47:41.367Z,5.60
2022-09-04T02:48:41.468Z,7.90
2022-09-04T02:49:41.267Z,6.50
2022-09-04T02:50:41.296Z,5.40
2022-09-04T02:51:41.395Z,6.00
2022-09-04T02:52:41.435Z,7.50
2022-09-04T02:53:41.227Z,5.70
2022-09-04T02:54:41.533Z,6.20
2022-09-04T02:55:41.406Z,5.80
2022-09-04T02:56:41.625Z,6.70
2022-09-04T02:57:41.646Z,6.90
2022-09-04T02:58:41.705Z,5.90
2022-09-04T02:59:41.704Z,6.00
2022-09-04T03:00:41.304Z,7.40
2022-09-04T03:01:41.216Z,6.00
2022-09-04T03:02:41.885Z,6.20
2022-09-04T03:03:41.478Z,5.80
2022-09-04T03:04:41.947Z,4.50
2022-09-04T03:05:41.318Z,5.50
2022-09-04T03:06:41.135Z,7.30
2022-09-04T03:07:41.830Z,6.70
2022-09-04T03:08:41.842Z,6.10
2022-09-04T03:09:41.245Z,7.30
2022-09-04T03:10:41.525Z,5.70
2022-09-04T03:11:41.943Z,5.10
2022-09-04T03:12:41.134Z,5.50
2022-09-04T03:13:41.473Z,8.30
2022-09-04T03:14:41.073Z,7.00
2022-09-04T03:15:41.125Z,7.20
2022-09-04T03:16:41.114Z,7.50
2022-09-04T03:17:41.133Z,6.20
2022-09-04T03:18:41.085Z,6.90
2022-09-04T03:19:41.114Z,6.00
2022-09-04T03:20:41.080Z,6.00
2022-09-04T03:21:41.122Z,6.00
2022-09-04T03:22:41.200Z,7.10
2022-09-04T03:23:41.082Z,6.70
2022-09-04T03:24:41.191Z,5.10
2022-09-04T03:25:41.296Z,5.20
2022-09-04T03:26:41.291Z,6.50
2022-09-04T03:27:40.994Z,6.20
2022-09-04T03:28:41.411Z,5.70
2022-09-04T03:29:40.996Z,6.60
2022-09-04T03:30:41.351Z,7.30
2022-09-04T03:31:41.712Z,5.70
2022-09-04T03:32:41.503Z,7.10
2022-09-04T03:33:41.541Z,5.20
2022-09-04T03:34:40.974Z,6.50
2022-09-04T03:35:41.441Z,6.50
2022-09-04T03:36:40.971Z,6.20
2022-09-04T03:37:40.911Z,8.00
2022-09-04T03:38:41.424Z,6.60
2022-09-04T03:39:41.856Z,6.30
2022-09-04T03:40:41.730Z,5.70
2022-09-04T03:41:40.900Z,6.80
2022-09-04T03:42:40.959Z,5.80
2022-09-04T03:43:41.481Z,6.00
2022-09-04T03:44:40.941Z,5.50
2022-09-04T03:45:40.919Z,7.10
2022-09-04T03:46:40.882Z,6.20
2022-09-04T03:47:40.849Z,4.60
2022-09-04T03:48:40.898Z,5.90
2022-09-04T03:49:40.949Z,6.10
2022-09-04T03:50:40.810Z,5.90
2022-09-04T03:51:40.807Z,5.40
2022-09-04T03:52:40.808Z,5.50
2022-09-04T03:53:40.841Z,5.80
2022-09-04T03:54:40.801Z,7.20
2022-09-04T03:55:42.768Z,5.60
2022-09-04T03:56:40.769Z,5.80
2022-09-04T03:57:40.841Z,6.30
2022-09-04T03:58:40.891Z,8.00
2022-09-04T03:59:40.900Z,5.00
2022-09-04T04:00:40.786Z,7.40
2022-09-04T04:01:40.927Z,4.90
2022-09-04T04:02:40.993Z,7.00
2022-09-04T04:03:40.958Z,5.80
2022-09-04T04:04:40.966Z,5.20
2022-09-04T04:05:40.787Z,7.60
2022-09-04T04:06:40.985Z,6.00
2022-09-04T04:07:41.004Z,6.40
2022-09-04T04:08:40.827Z,5.40
2022-09-04T04:09:41.034Z,6.10
2022-09-04T04:10:41.055Z,6.70
2022-09-04T04:11:43.448Z,6.00
2022-09-04T04:12:40.656Z,7.90
2022-09-04T04:13:40.688Z,7.90
2022-09-04T04:14:41.086Z,6.40
2022-09-04T04:15:41.106Z,7.10
2022-09-04T04:16:40.867Z,7.40
2022-09-04T04:17:41.114Z,7.30
2022-09-04T04:18:40.624Z,6.10
2022-09-04T04:19:41.156Z,7.10
2022-09-04T04:20:40.624Z,7.90
2022-09-04T04:21:40.623Z,6.50
2022-09-04T04:22:40.616Z,7.20
2022-09-04T04:23:41.024Z,6.70
2022-09-04T04:24:40.593Z,7.10
2022-09-04T04:25:40.573Z,6.80
2022-09-04T04:26:40.667Z,7.30
2022-09-04T04:27:40.561Z,7.00
2022-09-04T04:28:40.581Z,6.30
2022-09-04T04:29:40.542Z,6.10
2022-09-04T04:30:40.549Z,5.60
2022-09-04T04:31:40.568Z,6.10
2022-09-04T04:32:40.532Z,6.70
2022-09-04T04:33:40.584Z,5.80
2022-09-04T04:34:40.632Z,6.80
2022-09-04T04:35:40.721Z,6.50
2022-09-04T04:36:40.604Z,6.90
2022-09-04T04:37:40.610Z,7.30
2022-09-04T04:38:40.560Z,6.20
2022-09-04T04:39:40.690Z,6.20
2022-09-04T04:40:40.630Z,6.20
2022-09-04T04:41:40.475Z,6.30
2022-09-04T04:42:40.471Z,6.90
2022-09-04T04:43:40.481Z,7.20
2022-09-04T04:44:40.538Z,7.00
2022-09-04T04:45:40.469Z,6.00
2022-09-04T04:46:40.709Z,6.30
2022-09-04T04:47:40.626Z,6.20
2022-09-04T04:48:40.437Z,6.70
2022-09-04T04:49:40.862Z,7.00
2022-09-04T04:50:40.499Z,7.50
2022-09-04T04:51:40.449Z,7.20
2022-09-04T04:52:40.808Z,7.20
2022-09-04T04:53:40.820Z,6.20
2022-09-04T04:54:40.834Z,6.20
2022-09-04T04:55:40.838Z,7.30
2022-09-04T04:56:40.648Z,6.50
2022-09-04T04:57:40.407Z,6.20
2022-09-04T04:58:40.408Z,6.60
2022-09-04T04:59:40.891Z,7.00
2022-09-04T05:00:40.768Z,7.60
2022-09-04T05:01:40.573Z,7.00
2022-09-04T05:02:40.481Z,8.00
2022-09-04T05:03:40.328Z,7.80
2022-09-04T05:04:40.577Z,5.70
2022-09-04T05:05:40.966Z,5.70
2022-09-04T05:06:40.785Z,6.90
2022-09-04T05:07:40.344Z,6.50
2022-09-04T05:08:40.335Z,6.20
2022-09-04T05:09:40.777Z,6.60
2022-09-04T05:10:40.313Z,7.10
2022-09-04T05:11:40.286Z,7.30
2022-09-04T05:12:40.269Z,8.00
2022-09-04T05:13:40.286Z,7.30
2022-09-04T05:14:40.245Z,7.00
2022-09-04T05:15:58.135Z,7.70
2022-09-04T05:16:40.300Z,5.90
2022-09-04T05:17:40.279Z,7.30
2022-09-04T05:18:40.215Z,7.30
2022-09-04T05:19:40.277Z,6.60
2022-09-04T05:20:40.239Z,6.80
2022-09-04T05:21:40.244Z,8.20
2022-09-04T05:22:40.266Z,7.00
2022-09-04T05:23:40.213Z,5.90
2022-09-04T05:24:40.248Z,8.20
2022-09-04T05:25:40.295Z,6.50
2022-09-04T05:26:40.313Z,6.40
2022-09-04T05:27:40.173Z,6.30
2022-09-04T05:28:40.335Z,7.50
2022-09-04T05:29:40.163Z,6.70
2022-09-04T05:30:40.361Z,7.70
2022-09-04T05:31:40.428Z,6.30
2022-09-04T05:32:40.394Z,9.10
2022-09-04T05:33:40.403Z,6.70
2022-09-04T05:34:40.412Z,6.30
2022-09-04T05:35:40.426Z,5.40
2022-09-04T05:36:40.432Z,5.80
2022-09-04T05:37:40.090Z,6.10
2022-09-04T05:38:40.115Z,6.30
2022-09-04T05:39:40.273Z,7.00
2022-09-04T05:40:40.222Z,6.90
2022-09-04T05:41:40.264Z,6.30
2022-09-04T05:42:40.108Z,7.70
2022-09-04T05:43:40.335Z,7.20
2022-09-04T05:44:40.056Z,6.80
2022-09-04T05:45:40.030Z,6.70
2022-09-04T05:46:40.216Z,5.60
2022-09-04T05:47:40.071Z,7.90
2022-09-04T05:48:40.191Z,8.50
2022-09-04T05:49:40.001Z,6.90
2022-09-04T05:50:40.110Z,6.80
2022-09-04T05:51:40.140Z,7.00
2022-09-04T05:52:40.011Z,7.00
2022-09-04T05:53:40.140Z,6.20
2022-09-04T05:54:40.169Z,5.80
2022-09-04T05:55:40.108Z,5.90
2022-09-04T05:56:40.029Z,6.30
2022-09-04T05:57:40.001Z,6.10
2022-09-04T05:58:40.076Z,6.50
2022-09-04T05:59:43.927Z,6.20
2022-09-04T06:00:40.230Z,5.90
2022-09-04T06:01:40.101Z,6.60
2022-09-04T06:02:40.295Z,9.10
2022-09-04T06:03:39.949Z,5.30
2022-09-04T06:04:40.015Z,5.50
2022-09-04T06:05:39.916Z,5.50
2022-09-04T06:06:40.168Z,5.90
2022-09-04T06:07:39.938Z,6.30
2022-09-04T06:08:40.069Z,7.30
2022-09-04T06:09:39.999Z,7.10
2022-09-04T06:10:40.358Z,5.80
2022-09-04T06:11:39.947Z,6.50
2022-09-04T06:12:40.077Z,6.60
2022-09-04T06:13:39.879Z,7.50
2022-09-04T06:14:40.413Z,6.90
2022-09-04T06:15:40.270Z,7.10
2022-09-04T06:16:40.149Z,5.60
2022-09-04T06:17:39.825Z,7.10
2022-09-04T06:18:39.996Z,6.10
2022-09-04T06:19:39.986Z,6.40
2022-09-04T06:20:39.997Z,5.80
2022-09-04T06:21:40.157Z,5.80
2022-09-04T06:22:40.496Z,7.70
2022-09-04T06:23:39.863Z,6.80
2022-09-04T06:24:39.866Z,7.00
2022-09-04T06:25:39.783Z,6.40
2022-09-04T06:26:39.784Z,7.50
2022-09-04T06:27:39.865Z,8.80
2022-09-04T06:28:39.926Z,5.30
2022-09-04T06:29:39.964Z,5.70
2022-09-04T06:30:40.017Z,6.40
2022-09-04T06:31:39.808Z,7.00
2022-09-04T06:32:39.740Z,6.00
2022-09-04T06:33:39.840Z,5.50
2022-09-04T06:34:39.784Z,6.30
2022-09-04T06:35:39.704Z,5.20
2022-09-04T06:36:39.902Z,5.30
2022-09-04T06:37:39.914Z,5.30
2022-09-04T06:38:39.884Z,5.50
2022-09-04T06:39:40.080Z,5.90
2022-09-04T06:40:40.094Z,6.50
2022-09-04T06:41:40.117Z,5.80
2022-09-04T06:42:39.734Z,5.20
2022-09-04T06:43:40.222Z,5.50
2022-09-04T06:44:39.680Z,6.10
2022-09-04T06:45:39.631Z,5.10
2022-09-04T06:46:39.672Z,6.30
2022-09-04T06:47:39.623Z,4.60
2022-09-04T06:48:39.664Z,4.80
2022-09-04T06:49:39.664Z,5.30
2022-09-04T06:50:40.033Z,5.60
2022-09-04T06:51:39.863Z,6.30
2022-09-04T06:52:39.922Z,5.60
2022-09-04T06:53:39.584Z,5.70
2022-09-04T06:54:39.641Z,5.70
2022-09-04T06:55:39.759Z,5.40
2022-09-04T06:56:39.723Z,5.20
2022-09-04T06:57:39.723Z,5.70
2022-09-04T06:58:40.383Z,6.90
2022-09-04T06:59:40.264Z,9.60
2022-09-04T07:00:39.644Z,8.20
2022-09-04T07:01:39.636Z,7.60
2022-09-04T07:02:39.658Z,6.60
2022-09-04T07:03:39.552Z,6.60
2022-09-04T07:04:39.593Z,6.10
2022-09-04T07:05:39.521Z,6.10
2022-09-04T07:06:39.501Z,6.40
2022-09-04T07:07:39.751Z,6.30
2022-09-04T07:08:39.684Z,13.80
2022-09-04T07:09:39.834Z,19.10
2022-09-04T07:10:39.890Z,23.00
2022-09-04T07:11:39.931Z,24.90
2022-09-04T07:12:39.982Z,19.10
2022-09-04T07:13:39.641Z,18.20
2022-09-04T07:14:40.084Z,15.10
2022-09-04T07:15:40.132Z,13.30
2022-09-04T07:16:40.201Z,9.70
2022-09-04T07:17:39.413Z,7.60
2022-09-04T07:18:40.255Z,7.70
2022-09-04T07:19:40.324Z,6.50
2022-09-04T07:20:39.410Z,9.80
2022-09-04T07:21:39.701Z,7.30
2022-09-04T07:22:40.201Z,8.10
2022-09-04T07:23:39.480Z,5.70
2022-09-04T07:24:39.859Z,6.30
2022-09-04T07:25:39.441Z,5.90
2022-09-04T07:26:39.461Z,5.20
2022-09-04T07:27:40.152Z,6.20
2022-09-04T07:28:39.412Z,7.10
2022-09-04T07:29:40.091Z,6.90
2022-09-04T07:30:39.429Z,9.20
2022-09-04T07:31:39.592Z,5.80
2022-09-04T07:32:39.530Z,5.80
2022-09-04T07:33:40.050Z,6.00
2022-09-04T07:34:39.648Z,5.70
2022-09-04T07:35:39.698Z,7.20
2022-09-04T07:36:39.741Z,6.10
2022-09-04T07:37:40.130Z,6.90
2022-09-04T07:38:39.325Z,5.20
2022-09-04T07:39:39.365Z,6.40
2022-09-04T07:40:39.311Z,8.10
2022-09-04T07:41:39.361Z,5.70
2022-09-04T07:42:39.398Z,5.90
2022-09-04T07:43:39.460Z,5.40
2022-09-04T07:44:39.499Z,5.20
2022-09-04T07:45:39.271Z,5.50
2022-09-04T07:46:39.386Z,6.30
2022-09-04T07:47:39.210Z,6.00
2022-09-04T07:48:39.281Z,6.00
2022-09-04T07:49:39.730Z,6.20
2022-09-04T07:50:39.258Z,8.10
2022-09-04T07:51:39.828Z,6.10
2022-09-04T07:52:39.221Z,7.30
2022-09-04T07:53:39.798Z,6.40
2022-09-04T07:54:39.222Z,7.00
2022-09-04T07:55:39.981Z,5.20
2022-09-04T07:56:39.680Z,5.50
2022-09-04T07:57:39.948Z,5.70
2022-09-04T07:58:39.669Z,6.10
2022-09-04T07:59:39.133Z,5.60
2022-09-04T08:00:39.408Z,6.70
2022-09-04T08:01:40.451Z,4.60
2022-09-04T08:02:39.818Z,6.20
2022-09-04T08:03:53.854Z,5.80
2022-09-04T08:04:39.186Z,5.50
2022-09-04T08:05:39.087Z,6.60
2022-09-04T08:06:39.059Z,5.10
2022-09-04T08:07:39.088Z,3.90
2022-09-04T08:08:39.088Z,5.00
2022-09-04T08:09:39.080Z,4.40
2022-09-04T08:10:39.061Z,5.00
2022-09-04T08:11:39.118Z,4.10
2022-09-04T08:12:39.052Z,6.90
2022-09-04T08:13:39.140Z,3.50
2022-09-04T08:14:39.139Z,5.20
2022-09-04T08:15:42.722Z,5.70
2022-09-04T08:16:39.078Z,5.40
2022-09-04T08:17:39.118Z,4.10
2022-09-04T08:18:39.028Z,5.00
2022-09-04T08:19:39.145Z,3.70
2022-09-04T08:20:38.988Z,6.00
2022-09-04T08:21:38.957Z,3.50
2022-09-04T08:22:39.045Z,4.90
2022-09-04T08:23:39.037Z,5.30
2022-09-04T08:24:39.078Z,4.90
2022-09-04T08:25:39.133Z,4.30
2022-09-04T08:26:39.176Z,4.20
2022-09-04T08:27:42.896Z,4.30
2022-09-04T08:28:42.926Z,5.40
2022-09-04T08:29:39.351Z,4.50
2022-09-04T08:30:39.456Z,6.60
2022-09-04T08:31:39.377Z,4.80
2022-09-04T08:32:39.391Z,5.10
2022-09-04T08:33:38.858Z,4.00
2022-09-04T08:34:39.417Z,7.20
2022-09-04T08:35:39.426Z,5.30
2022-09-04T08:36:39.228Z,3.60
2022-09-04T08:37:39.448Z,4.10
2022-09-04T08:38:39.468Z,5.00
2022-09-04T08:39:38.972Z,7.60
2022-09-04T08:40:38.897Z,5.30
2022-09-04T08:41:39.497Z,5.40
2022-09-04T08:42:38.827Z,4.90
2022-09-04T08:43:38.917Z,4.90
2022-09-04T08:44:38.917Z,5.90
2022-09-04T08:45:42.612Z,4.60
2022-09-04T08:46:38.801Z,4.00
2022-09-04T08:47:38.788Z,5.00
2022-09-04T08:48:38.785Z,4.40
2022-09-04T08:49:38.766Z,6.50
2022-09-04T08:50:38.836Z,4.40
2022-09-04T08:51:38.768Z,3.80
2022-09-04T08:52:38.798Z,4.30
2022-09-04T08:53:38.727Z,4.10
2022-09-04T08:54:38.807Z,3.80
2022-09-04T08:55:38.767Z,4.70
2022-09-04T08:56:38.909Z,5.00
2022-09-04T08:57:38.929Z,6.60
2022-09-04T08:58:38.797Z,4.90
2022-09-04T08:59:38.824Z,4.00
2022-09-04T09:00:38.949Z,3.10
2022-09-04T09:01:39.071Z,4.10
2022-09-04T09:02:38.885Z,4.00
2022-09-04T09:03:39.028Z,3.70
2022-09-04T09:04:38.677Z,3.60
2022-09-04T09:05:39.018Z,3.80
2022-09-04T09:06:38.638Z,3.50
2022-09-04T09:07:38.647Z,4.30
2022-09-04T09:08:38.697Z,3.70
2022-09-04T09:09:38.610Z,4.70
2022-09-04T09:10:38.606Z,4.50
2022-09-04T09:11:38.606Z,5.10
2022-09-04T09:12:41.441Z,3.70
2022-09-04T09:13:38.585Z,3.40
2022-09-04T09:14:38.566Z,4.20
2022-09-04T09:15:38.584Z,4.70
2022-09-04T09:16:38.658Z,3.00
2022-09-04T09:17:38.560Z,3.60
2022-09-04T09:18:40.640Z,3.50
2022-09-04T09:19:38.566Z,3.70
2022-09-04T09:20:38.545Z,3.80
2022-09-04T09:21:38.548Z,4.60
2022-09-04T09:22:38.919Z,4.30
2022-09-04T09:23:38.506Z,3.00
2022-09-04T09:24:38.497Z,4.70
2022-09-04T09:25:42.218Z,3.70
2022-09-04T09:26:38.506Z,3.90
2022-09-04T09:27:38.487Z,3.00
2022-09-04T09:28:38.484Z,3.20
2022-09-04T09:29:38.502Z,3.20
2022-09-04T09:30:38.516Z,3.00
2022-09-04T09:31:38.513Z,2.80
2022-09-04T09:32:38.448Z,4.70
2022-09-04T09:33:38.446Z,3.90
2022-09-04T09:34:38.428Z,5.40
2022-09-04T09:35:38.430Z,3.80
2022-09-04T09:36:38.495Z,3.60
2022-09-04T09:37:38.428Z,4.20
2022-09-04T09:38:38.410Z,2.50
2022-09-04T09:39:38.446Z,3.60
2022-09-04T09:40:38.428Z,4.40
2022-09-04T09:41:38.539Z,4.60
2022-09-04T09:42:38.406Z,2.80
2022-09-04T09:43:38.375Z,3.30
2022-09-04T09:44:38.395Z,3.70
2022-09-04T09:45:38.406Z,4.50
2022-09-04T09:46:38.462Z,4.50
2022-09-04T09:47:38.725Z,3.10
2022-09-04T09:48:38.488Z,3.20
2022-09-04T09:49:38.343Z,3.30
2022-09-04T09:50:38.516Z,3.30
2022-09-04T09:51:38.444Z,3.60
2022-09-04T09:52:38.327Z,4.10
2022-09-04T09:53:38.326Z,4.20
2022-09-04T09:54:38.357Z,3.40
2022-09-04T09:55:38.340Z,3.60
2022-09-04T09:56:38.455Z,3.60
2022-09-04T09:57:38.285Z,3.50
2022-09-04T09:58:38.277Z,2.60
2022-09-04T09:59:38.275Z,3.40
2022-09-04T10:00:38.256Z,3.50
2022-09-04T10:01:38.424Z,3.20
2022-09-04T10:02:38.456Z,3.90
2022-09-04T10:03:38.274Z,2.50
2022-09-04T10:04:38.255Z,3.50
2022-09-04T10:05:38.298Z,3.70
2022-09-04T10:06:38.285Z,4.10
2022-09-04T10:07:38.325Z,3.10
2022-09-04T10:08:38.228Z,3.10
2022-09-04T10:11:04.263Z,2.60
2022-09-04T10:12:04.502Z,4.50
2022-09-04T10:13:04.147Z,4.20
2022-09-04T10:14:04.142Z,3.60
2022-09-04T10:15:04.144Z,2.50
2022-09-04T10:16:04.112Z,4.20
2022-09-04T10:17:04.186Z,2.70
2022-09-04T10:18:04.102Z,2.70
2022-09-04T10:19:04.115Z,3.50
2022-09-04T10:20:04.094Z,3.30
2022-09-04T10:21:04.083Z,3.10
2022-09-04T10:22:04.107Z,3.40
2022-09-04T10:23:04.099Z,2.50
2022-09-04T10:24:04.061Z,3.20
2022-09-04T10:25:04.091Z,2.50
2022-09-04T10:26:04.073Z,3.10
2022-09-04T10:27:04.073Z,6.30
2022-09-04T10:28:04.128Z,3.40
2022-09-04T10:29:04.273Z,4.20
2022-09-04T10:30:04.064Z,2.90
2022-09-04T10:31:04.097Z,3.50
2022-09-04T10:32:04.333Z,3.30
2022-09-04T10:33:08.003Z,3.80
2022-09-04T10:34:04.024Z,2.60
2022-09-04T10:35:04.031Z,3.10
2022-09-04T10:36:03.998Z,3.30
2022-09-04T10:37:04.094Z,4.50
2022-09-04T10:38:03.972Z,2.80
2022-09-04T10:39:04.049Z,2.90
2022-09-04T10:40:04.071Z,4.20
2022-09-04T10:41:03.955Z,3.80
2022-09-04T10:42:03.994Z,3.60
2022-09-04T10:43:03.942Z,2.40
2022-09-04T10:44:04.012Z,2.40
2022-09-04T10:45:03.985Z,4.60
2022-09-04T10:46:04.082Z,3.20
2022-09-04T10:47:04.033Z,2.80
2022-09-04T10:48:03.920Z,3.80
2022-09-04T10:49:03.902Z,2.60
2022-09-04T10:50:03.913Z,3.00
2022-09-04T10:51:03.901Z,3.20
2022-09-04T10:52:03.913Z,3.40
2022-09-04T10:53:03.915Z,4.40
2022-09-04T10:54:07.455Z,3.10
2022-09-04T10:55:03.917Z,4.00
2022-09-04T10:56:03.865Z,3.20
2022-09-04T10:57:03.863Z,2.40
2022-09-04T10:58:03.833Z,2.30
2022-09-04T10:59:03.842Z,2.50
2022-09-04T11:00:03.833Z,2.70
2022-09-04T11:01:03.871Z,3.20
2022-09-04T11:02:03.868Z,3.30
2022-09-04T11:03:03.812Z,2.90
2022-09-04T11:04:03.813Z,3.10
2022-09-04T11:05:03.788Z,3.20
2022-09-04T11:06:03.784Z,2.90
2022-09-04T11:07:03.800Z,2.90
2022-09-04T11:08:04.073Z,2.80
2022-09-04T11:09:03.832Z,4.20
2022-09-04T11:10:04.096Z,3.30
2022-09-04T11:11:03.757Z,3.80
2022-09-04T11:12:03.744Z,3.80
2022-09-04T11:13:03.794Z,4.70
2022-09-04T11:14:03.736Z,3.70
2022-09-04T11:15:04.162Z,2.80
2022-09-04T11:16:03.762Z,2.40
2022-09-04T11:17:03.754Z,2.30
2022-09-04T11:18:03.737Z,3.20
2022-09-04T11:19:03.769Z,2.40
2022-09-04T11:20:03.695Z,2.30
2022-09-04T11:21:03.788Z,2.70
2022-09-04T11:22:03.700Z,3.70
2022-09-04T11:23:03.693Z,2.50
2022-09-04T11:24:03.664Z,2.40
2022-09-04T11:25:03.657Z,2.70
2022-09-04T11:26:03.654Z,2.00
2022-09-04T11:27:08.103Z,2.80
2022-09-04T11:28:03.664Z,2.60
2022-09-04T11:29:04.154Z,3.50
2022-09-04T11:30:03.634Z,2.60
2022-09-04T11:31:03.644Z,2.90
2022-09-04T11:32:03.694Z,3.70
2022-09-04T11:33:04.477Z,3.20
2022-09-04T11:34:03.604Z,3.60
2022-09-04T11:35:03.615Z,3.20
2022-09-04T11:36:03.595Z,2.70
2022-09-04T11:37:04.495Z,2.90
2022-09-04T11:38:04.497Z,3.30
2022-09-04T11:39:03.592Z,2.40
2022-09-04T11:40:04.582Z,3.60
2022-09-04T11:41:04.505Z,2.70
2022-09-04T11:42:04.325Z,2.30
2022-09-04T11:43:04.435Z,2.90
2022-09-04T11:44:03.585Z,2.40
2022-09-04T11:45:04.383Z,2.50
2022-09-04T11:46:03.618Z,3.80
2022-09-04T11:47:04.446Z,2.40
2022-09-04T11:48:03.594Z,3.70
2022-09-04T11:49:03.555Z,2.80
2022-09-04T11:50:03.567Z,2.90
2022-09-04T11:51:03.506Z,2.60
2022-09-04T11:52:03.585Z,3.80
2022-09-04T11:53:03.605Z,2.30
2022-09-04T11:54:03.489Z,3.20
2022-09-04T11:55:03.696Z,2.40
2022-09-04T11:56:03.587Z,3.60
2022-09-04T11:57:03.596Z,2.60
2022-09-04T11:58:03.509Z,3.00
2022-09-04T11:59:03.511Z,3.70
2022-09-04T12:00:03.586Z,3.00
2022-09-04T12:01:03.537Z,2.50
2022-09-04T12:02:03.541Z,2.70
2022-09-04T12:03:03.454Z,2.90
2022-09-04T12:04:03.824Z,2.50
2022-09-04T12:05:03.434Z,2.70
2022-09-04T12:06:03.875Z,3.50
2022-09-04T12:07:03.925Z,3.60
2022-09-04T12:08:03.967Z,2.60
2022-09-04T12:09:03.414Z,2.60
2022-09-04T12:10:03.527Z,3.90
2022-09-04T12:11:04.120Z,2.30
2022-09-04T12:12:04.169Z,2.20
2022-09-04T12:13:14.802Z,3.60
2022-09-04T12:14:04.248Z,3.60
2022-09-04T12:15:07.542Z,3.20
2022-09-04T12:16:04.249Z,2.80
2022-09-04T12:17:04.398Z,3.10
2022-09-04T12:18:04.278Z,3.50
2022-09-04T12:19:04.187Z,4.50
2022-09-04T12:20:07.604Z,2.40
2022-09-04T12:21:04.249Z,3.10
2022-09-04T12:22:03.407Z,2.80
2022-09-04T12:23:04.317Z,3.30
2022-09-04T12:24:04.217Z,3.40
2022-09-04T12:25:04.376Z,3.90
2022-09-04T12:26:03.717Z,3.60
2022-09-04T12:27:03.520Z,3.70
2022-09-04T12:28:04.338Z,3.30
2022-09-04T12:29:04.253Z,3.80
2022-09-04T12:30:03.937Z,3.90
2022-09-04T12:31:03.437Z,2.90
2022-09-04T12:32:03.418Z,5.20
2022-09-04T12:33:07.599Z,4.20
2022-09-04T12:34:04.128Z,3.00
2022-09-04T12:35:03.269Z,3.10
2022-09-04T12:36:03.248Z,4.00
2022-09-04T12:37:03.371Z,2.70
2022-09-04T12:38:03.408Z,3.30
2022-09-04T12:39:03.457Z,3.40
2022-09-04T12:40:04.082Z,2.90
2022-09-04T12:41:03.409Z,3.60
2022-09-04T12:42:03.197Z,2.70
2022-09-04T12:43:03.590Z,5.60
2022-09-04T12:44:03.698Z,3.40
2022-09-04T12:45:03.649Z,4.50
2022-09-04T12:46:04.326Z,3.20
2022-09-04T12:47:03.188Z,2.80
2022-09-04T12:48:03.162Z,4.50
2022-09-04T12:49:03.151Z,2.60
2022-09-04T12:50:03.139Z,3.20
2022-09-04T12:51:03.140Z,2.40
2022-09-04T12:52:03.150Z,2.90
2022-09-04T12:53:03.129Z,3.70
2022-09-04T12:54:03.125Z,4.30
2022-09-04T12:55:03.120Z,3.50
2022-09-04T12:56:03.120Z,3.50
2022-09-04T12:57:03.382Z,3.80
2022-09-04T12:58:03.088Z,3.50
2022-09-04T12:59:03.082Z,3.00
2022-09-04T13:00:03.440Z,3.50
2022-09-04T13:01:03.190Z,2.50
2022-09-04T13:02:03.141Z,4.30
2022-09-04T13:03:03.066Z,3.20
2022-09-04T13:04:03.423Z,3.20
2022-09-04T13:05:03.771Z,4.30
2022-09-04T13:06:03.746Z,4.20
2022-09-04T13:07:03.050Z,3.30
2022-09-04T13:08:03.028Z,3.00
2022-09-04T13:09:03.032Z,3.10
2022-09-04T13:10:03.020Z,3.70
2022-09-04T13:11:03.012Z,4.40
2022-09-04T13:12:03.032Z,3.30
2022-09-04T13:13:03.001Z,3.60
2022-09-04T13:14:02.989Z,3.90
2022-09-04T13:15:02.980Z,4.40
2022-09-04T13:16:03.011Z,3.80
2022-09-04T13:17:03.010Z,2.50
2022-09-04T13:18:02.983Z,3.80
2022-09-04T13:19:03.201Z,3.30
2022-09-04T13:20:02.951Z,4.00